sensor_id;sensor_type;location;lat;lon;timestamp;P1;durP1;ratioP1;P2;durP2;ratioP2
64498;SDS011;51087;55.718;21.122;2023-05-29T00:00:16;6.40;;;2.38;;
64498;SDS011;51087;55.718;21.122;2023-05-29T00:02:45;5.35;;;2.45;;
64498;SDS011;51087;55.718;21.122;2023-05-29T00:05:11;10.13;;;2.67;;
64498;SDS011;51087;55.718;21.122;2023-05-29T00:07:37;8.10;;;2.10;;
64498;SDS011;51087;55.718;21.122;2023-05-29T00:10:04;8.18;;;2.38;;
64498;SDS011;51087;55.718;21.122;2023-05-29T00:12:30;7.18;;;2.17;;
64498;SDS011;51087;55.718;21.122;2023-05-29T00:14:56;10.38;;;2.70;;
64498;SDS011;51087;55.718;21.122;2023-05-29T00:17:22;10.50;;;2.90;;
64498;SDS011;51087;55.718;21.122;2023-05-29T00:19:48;7.15;;;2.55;;
64498;SDS011;51087;55.718;21.122;2023-05-29T00:22:14;8.40;;;2.30;;
64498;SDS011;51087;55.718;21.122;2023-05-29T00:24:40;7.40;;;2.30;;
64498;SDS011;51087;55.718;21.122;2023-05-29T00:27:05;11.73;;;2.38;;
64498;SDS011;51087;55.718;21.122;2023-05-29T00:29:31;8.35;;;1.77;;
64498;SDS011;51087;55.718;21.122;2023-05-29T00:31:56;5.57;;;2.63;;
64498;SDS011;51087;55.718;21.122;2023-05-29T00:34:22;7.50;;;2.47;;
64498;SDS011;51087;55.718;21.122;2023-05-29T00:36:48;7.65;;;2.47;;
64498;SDS011;51087;55.718;21.122;2023-05-29T00:39:13;7.88;;;2.78;;
64498;SDS011;51087;55.718;21.122;2023-05-29T00:41:39;8.93;;;2.50;;
64498;SDS011;51087;55.718;21.122;2023-05-29T00:44:04;6.03;;;2.53;;
64498;SDS011;51087;55.718;21.122;2023-05-29T00:46:30;6.38;;;2.45;;
64498;SDS011;51087;55.718;21.122;2023-05-29T00:48:57;11.30;;;3.22;;
64498;SDS011;51087;55.718;21.122;2023-05-29T00:51:24;7.32;;;2.60;;
64498;SDS011;51087;55.718;21.122;2023-05-29T00:53:50;8.65;;;3.33;;
64498;SDS011;51087;55.718;21.122;2023-05-29T00:56:17;11.73;;;2.75;;
64498;SDS011;51087;55.718;21.122;2023-05-29T00:58:43;8.45;;;2.65;;
64498;SDS011;51087;55.718;21.122;2023-05-29T01:01:09;9.90;;;2.53;;
64498;SDS011;51087;55.718;21.122;2023-05-29T01:03:35;7.38;;;2.78;;
64498;SDS011;51087;55.718;21.122;2023-05-29T01:06:01;8.45;;;2.90;;
64498;SDS011;51087;55.718;21.122;2023-05-29T01:08:28;10.10;;;2.65;;
64498;SDS011;51087;55.718;21.122;2023-05-29T01:10:55;9.02;;;2.85;;
64498;SDS011;51087;55.718;21.122;2023-05-29T01:13:27;9.13;;;2.95;;
64498;SDS011;51087;55.718;21.122;2023-05-29T01:18:41;7.28;;;2.58;;
64498;SDS011;51087;55.718;21.122;2023-05-29T01:29:35;7.03;;;2.60;;
64498;SDS011;51087;55.718;21.122;2023-05-29T01:32:03;7.50;;;2.65;;
64498;SDS011;51087;55.718;21.122;2023-05-29T01:34:30;5.88;;;2.72;;
64498;SDS011;51087;55.718;21.122;2023-05-29T01:36:56;11.15;;;2.80;;
64498;SDS011;51087;55.718;21.122;2023-05-29T01:39:21;8.13;;;2.80;;
64498;SDS011;51087;55.718;21.122;2023-05-29T01:41:48;9.57;;;2.78;;
64498;SDS011;51087;55.718;21.122;2023-05-29T01:44:15;13.27;;;2.72;;
64498;SDS011;51087;55.718;21.122;2023-05-29T01:46:41;9.32;;;2.97;;
64498;SDS011;51087;55.718;21.122;2023-05-29T01:49:08;9.93;;;2.88;;
64498;SDS011;51087;55.718;21.122;2023-05-29T01:51:36;8.38;;;3.10;;
64498;SDS011;51087;55.718;21.122;2023-05-29T01:54:01;8.85;;;2.97;;
64498;SDS011;51087;55.718;21.122;2023-05-29T01:56:28;10.05;;;3.22;;
64498;SDS011;51087;55.718;21.122;2023-05-29T01:58:54;10.63;;;3.08;;
64498;SDS011;51087;55.718;21.122;2023-05-29T02:01:21;8.25;;;3.15;;
64498;SDS011;51087;55.718;21.122;2023-05-29T02:03:47;9.40;;;2.88;;
64498;SDS011;51087;55.718;21.122;2023-05-29T02:06:12;15.38;;;3.20;;
64498;SDS011;51087;55.718;21.122;2023-05-29T02:08:38;7.45;;;2.83;;
64498;SDS011;51087;55.718;21.122;2023-05-29T02:11:03;9.63;;;3.13;;
64498;SDS011;51087;55.718;21.122;2023-05-29T02:13:29;8.65;;;2.88;;
64498;SDS011;51087;55.718;21.122;2023-05-29T02:15:54;10.13;;;3.55;;
64498;SDS011;51087;55.718;21.122;2023-05-29T02:18:20;11.75;;;3.33;;
64498;SDS011;51087;55.718;21.122;2023-05-29T02:20:46;7.90;;;3.22;;
64498;SDS011;51087;55.718;21.122;2023-05-29T02:23:11;13.43;;;3.45;;
64498;SDS011;51087;55.718;21.122;2023-05-29T02:25:37;11.07;;;3.25;;
64498;SDS011;51087;55.718;21.122;2023-05-29T02:28:03;14.75;;;3.40;;
64498;SDS011;51087;55.718;21.122;2023-05-29T02:30:29;7.60;;;3.13;;
64498;SDS011;51087;55.718;21.122;2023-05-29T02:32:55;12.77;;;3.30;;
64498;SDS011;51087;55.718;21.122;2023-05-29T02:35:21;11.38;;;2.85;;
64498;SDS011;51087;55.718;21.122;2023-05-29T02:37:50;10.05;;;3.50;;
64498;SDS011;51087;55.718;21.122;2023-05-29T02:40:16;11.25;;;3.15;;
64498;SDS011;51087;55.718;21.122;2023-05-29T02:42:42;9.80;;;3.58;;
64498;SDS011;51087;55.718;21.122;2023-05-29T02:45:07;16.40;;;3.25;;
64498;SDS011;51087;55.718;21.122;2023-05-29T02:47:33;16.08;;;3.55;;
64498;SDS011;51087;55.718;21.122;2023-05-29T02:49:59;9.23;;;3.88;;
64498;SDS011;51087;55.718;21.122;2023-05-29T02:52:25;7.90;;;2.75;;
64498;SDS011;51087;55.718;21.122;2023-05-29T02:54:50;7.57;;;2.80;;
64498;SDS011;51087;55.718;21.122;2023-05-29T02:57:15;7.25;;;3.03;;
64498;SDS011;51087;55.718;21.122;2023-05-29T02:59:41;12.73;;;2.20;;
64498;SDS011;51087;55.718;21.122;2023-05-29T03:02:07;6.70;;;2.53;;
64498;SDS011;51087;55.718;21.122;2023-05-29T03:04:32;10.85;;;2.72;;
64498;SDS011;51087;55.718;21.122;2023-05-29T03:06:58;13.05;;;3.00;;
64498;SDS011;51087;55.718;21.122;2023-05-29T03:09:23;11.20;;;3.47;;
64498;SDS011;51087;55.718;21.122;2023-05-29T03:11:49;7.28;;;2.42;;
64498;SDS011;51087;55.718;21.122;2023-05-29T03:14:15;7.07;;;2.42;;
64498;SDS011;51087;55.718;21.122;2023-05-29T03:16:42;7.85;;;2.65;;
64498;SDS011;51087;55.718;21.122;2023-05-29T03:19:08;5.63;;;1.67;;
64498;SDS011;51087;55.718;21.122;2023-05-29T03:21:33;7.07;;;2.42;;
64498;SDS011;51087;55.718;21.122;2023-05-29T03:24:00;10.73;;;2.42;;
64498;SDS011;51087;55.718;21.122;2023-05-29T03:26:27;9.13;;;2.65;;
64498;SDS011;51087;55.718;21.122;2023-05-29T03:28:53;6.57;;;1.85;;
64498;SDS011;51087;55.718;21.122;2023-05-29T03:31:18;10.88;;;2.97;;
64498;SDS011;51087;55.718;21.122;2023-05-29T03:33:43;7.78;;;2.58;;
64498;SDS011;51087;55.718;21.122;2023-05-29T03:36:10;12.68;;;2.65;;
64498;SDS011;51087;55.718;21.122;2023-05-29T03:38:36;8.10;;;2.53;;
64498;SDS011;51087;55.718;21.122;2023-05-29T03:41:01;13.40;;;2.85;;
64498;SDS011;51087;55.718;21.122;2023-05-29T03:43:27;10.00;;;2.83;;
64498;SDS011;51087;55.718;21.122;2023-05-29T03:45:52;8.70;;;2.85;;
64498;SDS011;51087;55.718;21.122;2023-05-29T03:48:17;7.38;;;2.60;;
64498;SDS011;51087;55.718;21.122;2023-05-29T03:50:44;7.47;;;1.77;;
64498;SDS011;51087;55.718;21.122;2023-05-29T03:53:10;9.05;;;2.55;;
64498;SDS011;51087;55.718;21.122;2023-05-29T03:55:35;11.32;;;2.55;;
64498;SDS011;51087;55.718;21.122;2023-05-29T03:58:01;8.68;;;2.60;;
64498;SDS011;51087;55.718;21.122;2023-05-29T04:00:26;9.20;;;2.85;;
64498;SDS011;51087;55.718;21.122;2023-05-29T04:02:52;7.50;;;2.50;;
64498;SDS011;51087;55.718;21.122;2023-05-29T04:05:17;7.82;;;2.65;;
64498;SDS011;51087;55.718;21.122;2023-05-29T04:07:43;7.93;;;2.05;;
64498;SDS011;51087;55.718;21.122;2023-05-29T04:10:08;9.98;;;2.35;;
64498;SDS011;51087;55.718;21.122;2023-05-29T04:12:34;8.98;;;2.30;;
64498;SDS011;51087;55.718;21.122;2023-05-29T04:15:00;8.30;;;2.50;;
64498;SDS011;51087;55.718;21.122;2023-05-29T04:17:25;7.70;;;2.28;;
64498;SDS011;51087;55.718;21.122;2023-05-29T04:19:51;8.38;;;2.60;;
64498;SDS011;51087;55.718;21.122;2023-05-29T04:22:16;7.82;;;2.35;;
64498;SDS011;51087;55.718;21.122;2023-05-29T04:24:42;7.90;;;2.30;;
64498;SDS011;51087;55.718;21.122;2023-05-29T04:27:10;9.25;;;2.38;;
64498;SDS011;51087;55.718;21.122;2023-05-29T04:29:41;11.77;;;2.50;;
64498;SDS011;51087;55.718;21.122;2023-05-29T04:32:07;12.38;;;2.80;;
64498;SDS011;51087;55.718;21.122;2023-05-29T04:34:35;9.55;;;2.38;;
64498;SDS011;51087;55.718;21.122;2023-05-29T04:37:03;6.68;;;2.20;;
64498;SDS011;51087;55.718;21.122;2023-05-29T04:39:29;7.43;;;1.65;;
64498;SDS011;51087;55.718;21.122;2023-05-29T04:41:55;11.43;;;2.28;;
64498;SDS011;51087;55.718;21.122;2023-05-29T04:44:23;11.27;;;2.72;;
64498;SDS011;51087;55.718;21.122;2023-05-29T04:46:50;9.65;;;2.28;;
64498;SDS011;51087;55.718;21.122;2023-05-29T04:49:17;10.77;;;2.55;;
64498;SDS011;51087;55.718;21.122;2023-05-29T04:51:43;13.63;;;2.38;;
64498;SDS011;51087;55.718;21.122;2023-05-29T04:54:10;9.73;;;2.30;;
64498;SDS011;51087;55.718;21.122;2023-05-29T04:56:36;5.13;;;1.55;;
64498;SDS011;51087;55.718;21.122;2023-05-29T04:59:02;7.88;;;1.88;;
64498;SDS011;51087;55.718;21.122;2023-05-29T05:01:27;7.63;;;2.53;;
64498;SDS011;51087;55.718;21.122;2023-05-29T05:03:53;4.20;;;1.30;;
64498;SDS011;51087;55.718;21.122;2023-05-29T05:06:21;8.93;;;2.15;;
64498;SDS011;51087;55.718;21.122;2023-05-29T05:08:47;5.28;;;1.88;;
64498;SDS011;51087;55.718;21.122;2023-05-29T05:11:12;14.00;;;2.20;;
64498;SDS011;51087;55.718;21.122;2023-05-29T05:13:39;7.93;;;1.52;;
64498;SDS011;51087;55.718;21.122;2023-05-29T05:16:04;5.50;;;1.42;;
64498;SDS011;51087;55.718;21.122;2023-05-29T05:18:30;5.80;;;1.70;;
64498;SDS011;51087;55.718;21.122;2023-05-29T05:20:55;7.82;;;2.22;;
64498;SDS011;51087;55.718;21.122;2023-05-29T05:23:21;10.10;;;1.90;;
64498;SDS011;51087;55.718;21.122;2023-05-29T05:25:46;14.30;;;2.28;;
64498;SDS011;51087;55.718;21.122;2023-05-29T05:28:12;7.60;;;2.25;;
64498;SDS011;51087;55.718;21.122;2023-05-29T05:30:38;5.55;;;1.65;;
64498;SDS011;51087;55.718;21.122;2023-05-29T05:33:03;10.40;;;2.03;;
64498;SDS011;51087;55.718;21.122;2023-05-29T05:35:29;12.65;;;2.60;;
64498;SDS011;51087;55.718;21.122;2023-05-29T05:37:54;10.13;;;2.35;;
64498;SDS011;51087;55.718;21.122;2023-05-29T05:40:23;5.38;;;1.75;;
64498;SDS011;51087;55.718;21.122;2023-05-29T05:42:48;6.80;;;1.85;;
64498;SDS011;51087;55.718;21.122;2023-05-29T05:45:14;7.75;;;1.40;;
64498;SDS011;51087;55.718;21.122;2023-05-29T05:47:39;7.43;;;1.85;;
64498;SDS011;51087;55.718;21.122;2023-05-29T05:50:05;9.10;;;1.98;;
64498;SDS011;51087;55.718;21.122;2023-05-29T05:52:30;10.38;;;2.08;;
64498;SDS011;51087;55.718;21.122;2023-05-29T05:54:57;11.65;;;2.20;;
64498;SDS011;51087;55.718;21.122;2023-05-29T05:57:23;10.38;;;1.70;;
64498;SDS011;51087;55.718;21.122;2023-05-29T05:59:48;9.82;;;2.20;;
64498;SDS011;51087;55.718;21.122;2023-05-29T06:02:13;6.28;;;1.75;;
64498;SDS011;51087;55.718;21.122;2023-05-29T06:04:39;4.60;;;1.20;;
64498;SDS011;51087;55.718;21.122;2023-05-29T06:07:05;5.13;;;1.65;;
64498;SDS011;51087;55.718;21.122;2023-05-29T06:09:31;9.27;;;2.17;;
64498;SDS011;51087;55.718;21.122;2023-05-29T06:11:56;13.30;;;2.00;;
64498;SDS011;51087;55.718;21.122;2023-05-29T06:14:23;20.00;;;2.03;;
64498;SDS011;51087;55.718;21.122;2023-05-29T06:16:48;11.38;;;1.85;;
64498;SDS011;51087;55.718;21.122;2023-05-29T06:19:14;15.38;;;2.17;;
64498;SDS011;51087;55.718;21.122;2023-05-29T06:21:40;12.02;;;2.20;;
64498;SDS011;51087;55.718;21.122;2023-05-29T06:24:05;11.18;;;2.08;;
64498;SDS011;51087;55.718;21.122;2023-05-29T06:26:31;13.27;;;1.92;;
64498;SDS011;51087;55.718;21.122;2023-05-29T06:28:57;11.48;;;1.90;;
64498;SDS011;51087;55.718;21.122;2023-05-29T06:31:22;10.02;;;1.90;;
64498;SDS011;51087;55.718;21.122;2023-05-29T06:33:48;6.85;;;1.67;;
64498;SDS011;51087;55.718;21.122;2023-05-29T06:36:13;8.65;;;1.67;;
64498;SDS011;51087;55.718;21.122;2023-05-29T06:38:38;11.90;;;1.67;;
64498;SDS011;51087;55.718;21.122;2023-05-29T06:41:05;10.88;;;2.40;;
64498;SDS011;51087;55.718;21.122;2023-05-29T06:43:30;13.63;;;2.30;;
64498;SDS011;51087;55.718;21.122;2023-05-29T06:45:55;8.35;;;1.83;;
64498;SDS011;51087;55.718;21.122;2023-05-29T06:48:21;10.50;;;1.95;;
64498;SDS011;51087;55.718;21.122;2023-05-29T06:50:47;14.10;;;2.45;;
64498;SDS011;51087;55.718;21.122;2023-05-29T06:53:13;9.52;;;2.03;;
64498;SDS011;51087;55.718;21.122;2023-05-29T06:55:38;10.02;;;1.83;;
64498;SDS011;51087;55.718;21.122;2023-05-29T06:58:06;12.25;;;1.80;;
64498;SDS011;51087;55.718;21.122;2023-05-29T07:00:31;13.82;;;1.90;;
64498;SDS011;51087;55.718;21.122;2023-05-29T07:02:57;19.00;;;2.10;;
64498;SDS011;51087;55.718;21.122;2023-05-29T07:05:22;13.05;;;3.00;;
64498;SDS011;51087;55.718;21.122;2023-05-29T07:07:48;11.10;;;2.10;;
64498;SDS011;51087;55.718;21.122;2023-05-29T07:10:13;9.32;;;1.42;;
64498;SDS011;51087;55.718;21.122;2023-05-29T07:12:39;6.45;;;1.70;;
64498;SDS011;51087;55.718;21.122;2023-05-29T07:15:04;12.25;;;2.80;;
64498;SDS011;51087;55.718;21.122;2023-05-29T07:17:30;11.73;;;2.03;;
64498;SDS011;51087;55.718;21.122;2023-05-29T07:19:55;15.88;;;2.17;;
64498;SDS011;51087;55.718;21.122;2023-05-29T07:22:21;7.30;;;1.60;;
64498;SDS011;51087;55.718;21.122;2023-05-29T07:24:46;7.63;;;1.70;;
64498;SDS011;51087;55.718;21.122;2023-05-29T07:27:12;9.52;;;1.75;;
64498;SDS011;51087;55.718;21.122;2023-05-29T07:29:37;14.60;;;2.50;;
64498;SDS011;51087;55.718;21.122;2023-05-29T07:32:02;8.98;;;1.67;;
64498;SDS011;51087;55.718;21.122;2023-05-29T07:34:28;9.30;;;1.90;;
64498;SDS011;51087;55.718;21.122;2023-05-29T07:37:03;8.85;;;1.60;;
64498;SDS011;51087;55.718;21.122;2023-05-29T07:39:30;10.38;;;1.85;;
64498;SDS011;51087;55.718;21.122;2023-05-29T07:41:57;7.60;;;1.33;;
64498;SDS011;51087;55.718;21.122;2023-05-29T07:44:24;8.93;;;1.70;;
64498;SDS011;51087;55.718;21.122;2023-05-29T07:46:50;13.45;;;2.15;;
64498;SDS011;51087;55.718;21.122;2023-05-29T07:49:15;7.07;;;1.75;;
64498;SDS011;51087;55.718;21.122;2023-05-29T07:51:41;8.93;;;1.77;;
64498;SDS011;51087;55.718;21.122;2023-05-29T07:54:07;7.90;;;1.70;;
64498;SDS011;51087;55.718;21.122;2023-05-29T07:56:32;9.52;;;1.83;;
64498;SDS011;51087;55.718;21.122;2023-05-29T07:58:59;10.90;;;2.15;;
64498;SDS011;51087;55.718;21.122;2023-05-29T08:01:25;4.68;;;1.48;;
64498;SDS011;51087;55.718;21.122;2023-05-29T08:03:51;5.82;;;1.40;;
64498;SDS011;51087;55.718;21.122;2023-05-29T08:06:16;5.53;;;1.15;;
64498;SDS011;51087;55.718;21.122;2023-05-29T08:08:42;3.33;;;1.15;;
64498;SDS011;51087;55.718;21.122;2023-05-29T08:11:08;12.02;;;1.70;;
64498;SDS011;51087;55.718;21.122;2023-05-29T08:13:33;6.05;;;1.20;;
64498;SDS011;51087;55.718;21.122;2023-05-29T08:15:59;7.22;;;1.58;;
64498;SDS011;51087;55.718;21.122;2023-05-29T08:18:25;5.80;;;1.58;;
64498;SDS011;51087;55.718;21.122;2023-05-29T08:20:51;5.15;;;1.10;;
64498;SDS011;51087;55.718;21.122;2023-05-29T08:23:17;3.63;;;1.02;;
64498;SDS011;51087;55.718;21.122;2023-05-29T08:25:43;9.13;;;1.50;;
64498;SDS011;51087;55.718;21.122;2023-05-29T08:28:08;9.55;;;1.90;;
64498;SDS011;51087;55.718;21.122;2023-05-29T08:30:34;12.25;;;1.60;;
64498;SDS011;51087;55.718;21.122;2023-05-29T08:32:59;3.83;;;1.23;;
64498;SDS011;51087;55.718;21.122;2023-05-29T08:35:25;6.53;;;1.33;;
64498;SDS011;51087;55.718;21.122;2023-05-29T08:37:50;10.63;;;1.70;;
64498;SDS011;51087;55.718;21.122;2023-05-29T08:40:16;5.40;;;1.50;;
64498;SDS011;51087;55.718;21.122;2023-05-29T08:42:51;10.48;;;1.40;;
64498;SDS011;51087;55.718;21.122;2023-05-29T08:45:21;8.50;;;1.80;;
64498;SDS011;51087;55.718;21.122;2023-05-29T08:47:49;8.48;;;1.80;;
64498;SDS011;51087;55.718;21.122;2023-05-29T08:50:17;12.18;;;1.80;;
64498;SDS011;51087;55.718;21.122;2023-05-29T08:52:44;3.38;;;1.30;;
64498;SDS011;51087;55.718;21.122;2023-05-29T08:55:10;8.00;;;1.60;;
64498;SDS011;51087;55.718;21.122;2023-05-29T08:57:35;4.30;;;1.42;;
64498;SDS011;51087;55.718;21.122;2023-05-29T09:00:02;6.15;;;1.60;;
64498;SDS011;51087;55.718;21.122;2023-05-29T09:02:40;8.70;;;1.80;;
64498;SDS011;51087;55.718;21.122;2023-05-29T09:05:09;9.02;;;1.83;;
64498;SDS011;51087;55.718;21.122;2023-05-29T09:07:35;3.88;;;1.02;;
64498;SDS011;51087;55.718;21.122;2023-05-29T09:10:04;6.50;;;1.45;;
64498;SDS011;51087;55.718;21.122;2023-05-29T09:12:40;6.80;;;1.70;;
64498;SDS011;51087;55.718;21.122;2023-05-29T09:15:27;7.50;;;1.80;;
64498;SDS011;51087;55.718;21.122;2023-05-29T09:17:52;6.30;;;1.10;;
64498;SDS011;51087;55.718;21.122;2023-05-29T09:20:20;4.82;;;1.90;;
64498;SDS011;51087;55.718;21.122;2023-05-29T09:25:28;8.93;;;1.65;;
64498;SDS011;51087;55.718;21.122;2023-05-29T09:27:58;8.82;;;2.00;;
64498;SDS011;51087;55.718;21.122;2023-05-29T09:30:32;7.05;;;1.90;;
64498;SDS011;51087;55.718;21.122;2023-05-29T09:33:02;10.18;;;1.90;;
64498;SDS011;51087;55.718;21.122;2023-05-29T09:35:35;9.70;;;1.75;;
64498;SDS011;51087;55.718;21.122;2023-05-29T09:38:05;6.20;;;1.52;;
64498;SDS011;51087;55.718;21.122;2023-05-29T09:40:40;15.10;;;1.98;;
64498;SDS011;51087;55.718;21.122;2023-05-29T09:43:09;8.73;;;1.70;;
64498;SDS011;51087;55.718;21.122;2023-05-29T09:45:39;5.32;;;1.58;;
64498;SDS011;51087;55.718;21.122;2023-05-29T09:48:11;8.63;;;1.38;;
64498;SDS011;51087;55.718;21.122;2023-05-29T09:50:47;6.65;;;1.58;;
64498;SDS011;51087;55.718;21.122;2023-05-29T09:53:18;7.20;;;1.67;;
64498;SDS011;51087;55.718;21.122;2023-05-29T09:55:46;9.05;;;1.20;;
64498;SDS011;51087;55.718;21.122;2023-05-29T09:58:13;6.82;;;1.40;;
64498;SDS011;51087;55.718;21.122;2023-05-29T10:00:40;6.13;;;1.48;;
64498;SDS011;51087;55.718;21.122;2023-05-29T10:03:07;5.30;;;1.45;;
64498;SDS011;51087;55.718;21.122;2023-05-29T10:05:32;7.05;;;1.63;;
64498;SDS011;51087;55.718;21.122;2023-05-29T10:07:57;5.82;;;1.30;;
64498;SDS011;51087;55.718;21.122;2023-05-29T10:10:27;9.43;;;1.45;;
64498;SDS011;51087;55.718;21.122;2023-05-29T10:12:53;4.55;;;1.17;;
64498;SDS011;51087;55.718;21.122;2023-05-29T10:15:20;4.90;;;1.55;;
64498;SDS011;51087;55.718;21.122;2023-05-29T10:20:23;6.40;;;1.70;;
64498;SDS011;51087;55.718;21.122;2023-05-29T10:22:51;9.70;;;2.03;;
64498;SDS011;51087;55.718;21.122;2023-05-29T10:25:19;7.35;;;1.60;;
64498;SDS011;51087;55.718;21.122;2023-05-29T10:27:46;6.32;;;1.63;;
64498;SDS011;51087;55.718;21.122;2023-05-29T10:30:14;4.82;;;1.60;;
64498;SDS011;51087;55.718;21.122;2023-05-29T10:33:10;5.88;;;1.50;;
64498;SDS011;51087;55.718;21.122;2023-05-29T10:38:35;7.45;;;1.17;;
64498;SDS011;51087;55.718;21.122;2023-05-29T10:43:55;8.00;;;1.92;;
64498;SDS011;51087;55.718;21.122;2023-05-29T10:49:33;5.18;;;1.17;;
64498;SDS011;51087;55.718;21.122;2023-05-29T10:51:59;7.03;;;1.70;;
64498;SDS011;51087;55.718;21.122;2023-05-29T10:54:25;19.25;;;2.40;;
64498;SDS011;51087;55.718;21.122;2023-05-29T10:56:52;7.57;;;1.83;;
64498;SDS011;51087;55.718;21.122;2023-05-29T10:59:20;6.32;;;1.60;;
64498;SDS011;51087;55.718;21.122;2023-05-29T11:01:46;8.20;;;1.73;;
64498;SDS011;51087;55.718;21.122;2023-05-29T11:06:45;2.58;;;1.13;;
64498;SDS011;51087;55.718;21.122;2023-05-29T11:12:10;7.80;;;1.70;;
64498;SDS011;51087;55.718;21.122;2023-05-29T11:14:55;7.90;;;1.83;;
64498;SDS011;51087;55.718;21.122;2023-05-29T11:17:55;9.77;;;1.60;;
64498;SDS011;51087;55.718;21.122;2023-05-29T11:20:28;12.68;;;1.92;;
64498;SDS011;51087;55.718;21.122;2023-05-29T11:23:06;7.88;;;1.75;;
64498;SDS011;51087;55.718;21.122;2023-05-29T11:25:37;8.40;;;2.05;;
64498;SDS011;51087;55.718;21.122;2023-05-29T11:28:03;7.72;;;1.88;;
64498;SDS011;51087;55.718;21.122;2023-05-29T11:30:40;4.28;;;1.42;;
64498;SDS011;51087;55.718;21.122;2023-05-29T11:33:08;6.95;;;1.40;;
64498;SDS011;51087;55.718;21.122;2023-05-29T11:35:49;8.73;;;1.73;;
64498;SDS011;51087;55.718;21.122;2023-05-29T11:38:18;9.30;;;2.22;;
64498;SDS011;51087;55.718;21.122;2023-05-29T11:40:44;7.38;;;1.85;;
64498;SDS011;51087;55.718;21.122;2023-05-29T11:43:11;9.38;;;1.95;;
64498;SDS011;51087;55.718;21.122;2023-05-29T11:45:38;8.95;;;2.17;;
64498;SDS011;51087;55.718;21.122;2023-05-29T11:48:04;7.30;;;1.20;;
64498;SDS011;51087;55.718;21.122;2023-05-29T11:50:31;6.80;;;1.75;;
64498;SDS011;51087;55.718;21.122;2023-05-29T11:52:58;9.32;;;1.83;;
64498;SDS011;51087;55.718;21.122;2023-05-29T11:55:24;8.18;;;2.08;;
64498;SDS011;51087;55.718;21.122;2023-05-29T11:57:52;10.20;;;2.10;;
64498;SDS011;51087;55.718;21.122;2023-05-29T12:00:24;9.50;;;2.13;;
64498;SDS011;51087;55.718;21.122;2023-05-29T12:02:51;7.18;;;2.15;;
64498;SDS011;51087;55.718;21.122;2023-05-29T12:05:17;10.05;;;2.30;;
64498;SDS011;51087;55.718;21.122;2023-05-29T12:08:01;5.25;;;2.05;;
64498;SDS011;51087;55.718;21.122;2023-05-29T12:10:29;5.93;;;2.13;;
64498;SDS011;51087;55.718;21.122;2023-05-29T12:12:56;9.18;;;2.45;;
64498;SDS011;51087;55.718;21.122;2023-05-29T12:15:23;9.60;;;1.92;;
64498;SDS011;51087;55.718;21.122;2023-05-29T12:17:49;9.32;;;1.52;;
64498;SDS011;51087;55.718;21.122;2023-05-29T12:20:16;8.63;;;2.30;;
64498;SDS011;51087;55.718;21.122;2023-05-29T12:22:43;7.68;;;2.20;;
64498;SDS011;51087;55.718;21.122;2023-05-29T12:25:16;13.50;;;2.28;;
64498;SDS011;51087;55.718;21.122;2023-05-29T12:27:45;9.27;;;2.33;;
64498;SDS011;51087;55.718;21.122;2023-05-29T12:32:44;5.43;;;2.05;;
64498;SDS011;51087;55.718;21.122;2023-05-29T12:35:16;7.90;;;2.22;;
64498;SDS011;51087;55.718;21.122;2023-05-29T12:37:49;9.25;;;2.42;;
64498;SDS011;51087;55.718;21.122;2023-05-29T12:40:22;7.93;;;2.13;;
64498;SDS011;51087;55.718;21.122;2023-05-29T12:42:49;6.65;;;2.03;;
64498;SDS011;51087;55.718;21.122;2023-05-29T12:45:19;7.00;;;2.30;;
64498;SDS011;51087;55.718;21.122;2023-05-29T12:47:45;9.40;;;2.45;;
64498;SDS011;51087;55.718;21.122;2023-05-29T12:50:27;10.20;;;2.50;;
64498;SDS011;51087;55.718;21.122;2023-05-29T12:52:54;6.18;;;1.77;;
64498;SDS011;51087;55.718;21.122;2023-05-29T12:55:33;7.57;;;2.25;;
64498;SDS011;51087;55.718;21.122;2023-05-29T12:58:02;5.05;;;1.58;;
64498;SDS011;51087;55.718;21.122;2023-05-29T13:00:28;11.02;;;2.78;;
64498;SDS011;51087;55.718;21.122;2023-05-29T13:02:54;7.60;;;2.50;;
64498;SDS011;51087;55.718;21.122;2023-05-29T13:05:19;7.90;;;2.50;;
64498;SDS011;51087;55.718;21.122;2023-05-29T13:07:47;11.82;;;2.60;;
64498;SDS011;51087;55.718;21.122;2023-05-29T13:10:14;8.98;;;2.40;;
64498;SDS011;51087;55.718;21.122;2023-05-29T13:12:40;8.15;;;2.67;;
64498;SDS011;51087;55.718;21.122;2023-05-29T13:15:07;6.57;;;2.30;;
64498;SDS011;51087;55.718;21.122;2023-05-29T13:17:32;9.20;;;2.47;;
64498;SDS011;51087;55.718;21.122;2023-05-29T13:19:58;4.55;;;2.15;;
64498;SDS011;51087;55.718;21.122;2023-05-29T13:22:24;7.20;;;1.98;;
64498;SDS011;51087;55.718;21.122;2023-05-29T13:24:55;8.40;;;2.28;;
64498;SDS011;51087;55.718;21.122;2023-05-29T13:27:27;4.35;;;2.00;;
64498;SDS011;51087;55.718;21.122;2023-05-29T13:29:52;7.32;;;1.95;;
64498;SDS011;51087;55.718;21.122;2023-05-29T13:32:19;6.80;;;2.35;;
64498;SDS011;51087;55.718;21.122;2023-05-29T13:34:44;9.77;;;2.90;;
64498;SDS011;51087;55.718;21.122;2023-05-29T13:37:10;7.65;;;2.45;;
64498;SDS011;51087;55.718;21.122;2023-05-29T13:39:35;5.90;;;2.10;;
64498;SDS011;51087;55.718;21.122;2023-05-29T13:42:01;6.95;;;2.42;;
64498;SDS011;51087;55.718;21.122;2023-05-29T13:44:26;6.60;;;2.30;;
64498;SDS011;51087;55.718;21.122;2023-05-29T13:46:52;6.72;;;2.28;;
64498;SDS011;51087;55.718;21.122;2023-05-29T13:49:18;7.13;;;2.60;;
64498;SDS011;51087;55.718;21.122;2023-05-29T13:51:44;4.70;;;2.00;;
64498;SDS011;51087;55.718;21.122;2023-05-29T13:54:12;8.00;;;2.33;;
64498;SDS011;51087;55.718;21.122;2023-05-29T13:56:37;9.30;;;2.47;;
64498;SDS011;51087;55.718;21.122;2023-05-29T13:59:03;5.07;;;1.88;;
64498;SDS011;51087;55.718;21.122;2023-05-29T14:01:31;4.90;;;1.90;;
64498;SDS011;51087;55.718;21.122;2023-05-29T14:03:59;4.85;;;1.48;;
64498;SDS011;51087;55.718;21.122;2023-05-29T14:06:25;2.85;;;1.45;;
64498;SDS011;51087;55.718;21.122;2023-05-29T14:08:51;3.67;;;1.50;;
64498;SDS011;51087;55.718;21.122;2023-05-29T14:11:16;10.13;;;2.00;;
64498;SDS011;51087;55.718;21.122;2023-05-29T14:13:42;3.85;;;1.35;;
64498;SDS011;51087;55.718;21.122;2023-05-29T14:16:07;5.75;;;1.30;;
64498;SDS011;51087;55.718;21.122;2023-05-29T14:18:33;7.82;;;1.50;;
64498;SDS011;51087;55.718;21.122;2023-05-29T14:20:58;6.30;;;1.33;;
64498;SDS011;51087;55.718;21.122;2023-05-29T14:23:24;3.78;;;1.33;;
64498;SDS011;51087;55.718;21.122;2023-05-29T14:25:49;11.57;;;1.30;;
64498;SDS011;51087;55.718;21.122;2023-05-29T14:28:16;8.43;;;1.60;;
64498;SDS011;51087;55.718;21.122;2023-05-29T14:30:42;5.20;;;1.23;;
64498;SDS011;51087;55.718;21.122;2023-05-29T14:33:08;6.25;;;1.30;;
64498;SDS011;51087;55.718;21.122;2023-05-29T14:35:34;6.82;;;1.20;;
64498;SDS011;51087;55.718;21.122;2023-05-29T14:37:59;3.08;;;1.13;;
64498;SDS011;51087;55.718;21.122;2023-05-29T14:40:25;3.58;;;1.10;;
64498;SDS011;51087;55.718;21.122;2023-05-29T14:42:50;3.25;;;1.05;;
64498;SDS011;51087;55.718;21.122;2023-05-29T14:45:16;3.65;;;1.10;;
64498;SDS011;51087;55.718;21.122;2023-05-29T14:47:42;4.68;;;1.10;;
64498;SDS011;51087;55.718;21.122;2023-05-29T14:50:08;2.67;;;1.00;;
64498;SDS011;51087;55.718;21.122;2023-05-29T14:52:33;2.22;;;1.00;;
64498;SDS011;51087;55.718;21.122;2023-05-29T14:55:02;2.00;;;1.10;;
64498;SDS011;51087;55.718;21.122;2023-05-29T14:57:29;4.30;;;0.88;;
64498;SDS011;51087;55.718;21.122;2023-05-29T14:59:57;2.15;;;0.93;;
64498;SDS011;51087;55.718;21.122;2023-05-29T15:02:23;3.85;;;1.00;;